createdAt,value
2019-01-24T00:00:44.653Z,96.43
2019-01-24T00:03:18.129Z,92.60
2019-01-24T00:05:51.553Z,93.43
2019-01-24T00:08:25.366Z,96.70
2019-01-24T00:10:58.781Z,88.03
2019-01-24T00:13:32.167Z,90.33
2019-01-24T00:16:05.612Z,87.53
2019-01-24T00:18:39.037Z,86.20
2019-01-24T00:21:12.549Z,80.73
2019-01-24T00:23:46.082Z,79.67
2019-01-24T00:26:19.484Z,80.67
2019-01-24T00:28:53.369Z,90.30
2019-01-24T00:31:26.766Z,85.17
2019-01-24T00:34:00.131Z,80.40
2019-01-24T00:36:33.481Z,83.53
2019-01-24T00:39:08.420Z,86.77
2019-01-24T00:41:41.748Z,82.37
2019-01-24T00:44:15.125Z,80.67
2019-01-24T00:46:48.452Z,81.50
2019-01-24T00:49:21.819Z,83.80
2019-01-24T00:51:55.154Z,85.80
2019-01-24T00:54:28.606Z,88.87
2019-01-24T00:57:01.979Z,82.63
2019-01-24T00:59:35.412Z,76.17
2019-01-24T01:02:08.746Z,75.40
2019-01-24T01:04:42.195Z,75.63
2019-01-24T01:07:15.595Z,80.27
2019-01-24T01:09:48.961Z,74.60
2019-01-24T01:12:22.368Z,73.00
2019-01-24T01:14:56.235Z,70.50
2019-01-24T01:17:29.715Z,66.63
2019-01-24T01:20:04.332Z,71.13
2019-01-24T01:22:37.841Z,70.93
2019-01-24T01:25:12.562Z,69.20
2019-01-24T01:27:46.031Z,67.80
2019-01-24T01:30:21.853Z,67.07
2019-01-24T01:32:55.251Z,64.43
2019-01-24T01:35:28.690Z,58.10
2019-01-24T01:38:02.030Z,63.37
2019-01-24T01:40:35.838Z,55.63
2019-01-24T01:43:09.244Z,54.47
2019-01-24T01:45:42.668Z,52.23
2019-01-24T01:48:15.996Z,54.63
2019-01-24T01:50:49.434Z,51.93
2019-01-24T01:53:22.757Z,54.50
2019-01-24T01:55:56.453Z,50.47
2019-01-24T01:58:29.794Z,55.90
2019-01-24T02:01:03.245Z,54.43
2019-01-24T02:03:36.646Z,48.37
2019-01-24T02:06:10.072Z,53.27
2019-01-24T02:08:43.404Z,51.40
2019-01-24T02:11:16.764Z,49.73
2019-01-24T02:13:50.093Z,50.20
2019-01-24T02:16:23.525Z,48.80
2019-01-24T02:18:56.928Z,49.10
2019-01-24T02:21:30.773Z,47.87
2019-01-24T02:24:04.241Z,44.80
2019-01-24T02:26:37.691Z,52.17
2019-01-24T02:29:11.027Z,42.90
2019-01-24T02:31:44.495Z,47.90
2019-01-24T02:34:17.948Z,49.57
2019-01-24T02:36:51.367Z,49.47
2019-01-24T02:39:24.823Z,48.60
2019-01-24T02:41:58.168Z,45.67
2019-01-24T02:44:31.624Z,44.73
2019-01-24T02:47:05.057Z,45.97
2019-01-24T02:49:38.515Z,43.53
2019-01-24T02:52:11.941Z,44.60
2019-01-24T02:54:45.687Z,45.77
2019-01-24T02:57:19.102Z,47.57
2019-01-24T02:59:52.576Z,49.10
2019-01-24T03:02:25.997Z,45.67
2019-01-24T03:04:59.443Z,45.17
2019-01-24T03:07:32.879Z,47.30
2019-01-24T03:10:09.556Z,47.20
2019-01-24T03:12:42.975Z,45.70
2019-01-24T03:15:21.273Z,45.53
2019-01-24T03:17:54.697Z,46.60
2019-01-24T03:20:28.144Z,45.37
2019-01-24T03:23:01.639Z,45.00
2019-01-24T03:25:35.167Z,44.33
2019-01-24T03:28:08.595Z,47.73
2019-01-24T03:30:42.069Z,51.47
2019-01-24T03:33:15.501Z,45.90
2019-01-24T03:35:48.948Z,46.83
2019-01-24T03:38:22.435Z,47.40
2019-01-24T03:40:55.975Z,46.13
2019-01-24T03:43:29.400Z,43.87
2019-01-24T03:46:02.955Z,47.60
2019-01-24T03:48:36.403Z,48.47
2019-01-24T03:51:09.794Z,44.17
2019-01-24T03:53:43.208Z,44.40
2019-01-24T03:56:16.680Z,45.50
2019-01-24T03:58:50.092Z,45.77
2019-01-24T04:01:23.630Z,47.27
2019-01-24T04:03:56.979Z,49.07
2019-01-24T04:06:30.433Z,43.43
2019-01-24T04:09:05.221Z,47.57
2019-01-24T04:11:38.672Z,47.10
2019-01-24T04:14:12.093Z,44.70
2019-01-24T04:16:45.621Z,46.30
2019-01-24T04:19:20.361Z,47.17
2019-01-24T04:21:53.815Z,45.50
2019-01-24T04:24:27.159Z,44.83
2019-01-24T04:27:00.607Z,45.80
2019-01-24T04:29:34.039Z,48.90
2019-01-24T04:32:07.508Z,45.30
2019-01-24T04:34:40.931Z,50.43
2019-01-24T04:37:14.333Z,47.30
2019-01-24T04:39:47.812Z,48.30
2019-01-24T04:42:21.290Z,47.70
2019-01-24T04:44:54.699Z,45.23
2019-01-24T04:47:28.169Z,46.93
2019-01-24T04:50:01.594Z,52.00
2019-01-24T04:52:35.104Z,48.60
2019-01-24T04:55:11.633Z,45.77
2019-01-24T04:57:45.184Z,45.57
2019-01-24T05:00:27.048Z,47.13
2019-01-24T05:03:00.583Z,50.80
2019-01-24T05:05:34.019Z,46.17
2019-01-24T05:08:07.469Z,49.40
2019-01-24T05:10:40.845Z,50.37
2019-01-24T05:13:14.318Z,51.20
2019-01-24T05:15:47.735Z,49.50
2019-01-24T05:18:21.212Z,49.73
2019-01-24T05:20:54.634Z,52.70
2019-01-24T05:23:28.101Z,50.23
2019-01-24T05:26:01.524Z,56.80
2019-01-24T05:28:35.247Z,52.80
2019-01-24T05:31:08.690Z,55.53
2019-01-24T05:33:42.454Z,55.33
2019-01-24T05:36:15.959Z,52.83
2019-01-24T05:38:49.415Z,52.07
2019-01-24T05:41:22.841Z,51.87
2019-01-24T05:43:56.293Z,50.70
2019-01-24T05:46:29.792Z,46.03
2019-01-24T05:49:03.664Z,49.50
2019-01-24T05:51:37.158Z,54.43
2019-01-24T05:54:10.626Z,50.80
2019-01-24T05:56:44.107Z,51.97
2019-01-24T05:59:17.576Z,52.60
2019-01-24T06:01:51.574Z,50.60
2019-01-24T06:04:25.053Z,45.97
2019-01-24T06:06:58.539Z,45.93
2019-01-24T06:09:32.413Z,45.47
2019-01-24T06:12:05.806Z,51.30
2019-01-24T06:14:39.271Z,46.80
2019-01-24T06:17:12.681Z,51.43
2019-01-24T06:19:46.068Z,49.33
2019-01-24T06:22:19.484Z,50.70
2019-01-24T06:24:52.941Z,46.37
2019-01-24T06:27:26.355Z,47.40
2019-01-24T06:29:59.812Z,48.00
2019-01-24T06:32:33.233Z,49.97
2019-01-24T06:35:06.876Z,49.87
2019-01-24T06:37:40.306Z,45.53
2019-01-24T06:40:15.632Z,50.20
2019-01-24T06:42:49.132Z,52.10
2019-01-24T06:45:23.345Z,48.17
2019-01-24T06:47:56.771Z,50.20
2019-01-24T06:50:30.156Z,49.90
2019-01-24T06:53:03.581Z,50.83
2019-01-24T06:55:37.180Z,45.73
2019-01-24T06:58:10.601Z,47.33
2019-01-24T07:00:44.061Z,43.63
2019-01-24T07:03:17.476Z,49.17
2019-01-24T07:05:55.321Z,46.13
2019-01-24T07:08:26.647Z,47.80
2019-01-24T07:11:00.102Z,50.03
2019-01-24T07:13:33.521Z,46.97
2019-01-24T07:16:06.983Z,46.53
2019-01-24T07:18:40.472Z,50.00
2019-01-24T07:21:13.951Z,45.43
2019-01-24T07:23:47.366Z,44.03
2019-01-24T07:26:20.898Z,52.00
2019-01-24T07:28:54.260Z,47.83
2019-01-24T07:31:27.794Z,46.83
2019-01-24T07:34:01.139Z,48.17
2019-01-24T07:36:34.609Z,49.47
2019-01-24T07:39:08.434Z,45.03
2019-01-24T07:41:41.906Z,48.17
2019-01-24T07:44:15.332Z,43.60
2019-01-24T07:46:48.729Z,45.53
2019-01-24T07:49:22.074Z,48.43
2019-01-24T07:51:55.613Z,46.67
2019-01-24T07:54:28.961Z,48.87
2019-01-24T07:57:02.423Z,49.77
2019-01-24T07:59:35.839Z,52.73
2019-01-24T08:02:09.293Z,47.83
2019-01-24T08:04:42.720Z,48.20
2019-01-24T08:07:16.123Z,50.60
2019-01-24T08:09:49.542Z,50.53
2019-01-24T08:12:23.075Z,53.67
2019-01-24T08:14:56.565Z,46.80
2019-01-24T08:17:30.013Z,51.70
2019-01-24T08:20:04.799Z,45.80
2019-01-24T08:22:38.329Z,47.67
2019-01-24T08:25:11.812Z,46.53
2019-01-24T08:27:45.431Z,45.97
2019-01-24T08:30:38.134Z,49.40
2019-01-24T08:33:11.581Z,45.13
2019-01-24T08:35:45.067Z,44.47
2019-01-24T08:38:18.609Z,41.87
2019-01-24T08:40:52.031Z,46.67
2019-01-24T08:43:25.483Z,45.83
2019-01-24T08:45:58.903Z,41.87
2019-01-24T08:48:32.428Z,45.50
2019-01-24T08:51:05.911Z,42.03
2019-01-24T08:53:39.439Z,42.90
2019-01-24T08:56:12.787Z,42.40
2019-01-24T08:58:46.702Z,40.17
2019-01-24T09:01:20.124Z,43.63
2019-01-24T09:03:53.588Z,43.60
2019-01-24T09:06:27.194Z,42.73
2019-01-24T09:09:00.646Z,43.80
2019-01-24T09:11:33.997Z,39.57
2019-01-24T09:14:07.529Z,41.20
2019-01-24T09:16:41.052Z,43.37
2019-01-24T09:19:14.583Z,43.30
2019-01-24T09:21:47.997Z,42.80
2019-01-24T09:24:22.311Z,44.00
2019-01-24T09:26:55.731Z,41.30
2019-01-24T09:29:29.212Z,39.77
2019-01-24T09:32:02.633Z,42.00
2019-01-24T09:34:36.213Z,42.43
2019-01-24T09:37:09.609Z,44.60
2019-01-24T09:39:43.430Z,42.63
2019-01-24T09:42:16.831Z,42.90
2019-01-24T09:44:50.391Z,40.63
2019-01-24T09:47:23.818Z,41.47
2019-01-24T09:49:57.344Z,45.37
2019-01-24T09:52:31.067Z,44.63
2019-01-24T09:55:06.578Z,43.27
2019-01-24T09:57:40.132Z,42.33
2019-01-24T10:00:19.218Z,43.43
2019-01-24T10:02:52.744Z,42.47
2019-01-24T10:05:26.285Z,41.97
2019-01-24T10:07:59.871Z,41.87
2019-01-24T10:10:33.344Z,40.87
2019-01-24T10:13:06.945Z,39.57
2019-01-24T10:15:40.416Z,42.90
2019-01-24T10:18:13.846Z,42.43
2019-01-24T10:20:47.462Z,43.20
2019-01-24T10:23:20.893Z,40.40
2019-01-24T10:25:54.771Z,43.47
2019-01-24T10:28:28.261Z,45.33
2019-01-24T10:31:01.800Z,41.50
2019-01-24T10:33:35.225Z,45.70
2019-01-24T10:36:08.789Z,41.47
2019-01-24T10:38:42.197Z,43.20
2019-01-24T10:41:15.647Z,43.20
2019-01-24T10:43:49.161Z,41.07
2019-01-24T10:46:22.653Z,39.83
2019-01-24T10:48:56.158Z,41.60
2019-01-24T10:51:29.665Z,40.17
2019-01-24T10:54:03.143Z,47.40
2019-01-24T10:56:36.690Z,45.20
2019-01-24T10:59:10.109Z,41.17
2019-01-24T11:01:43.569Z,46.80
2019-01-24T11:04:17.053Z,41.20
2019-01-24T11:06:50.660Z,41.53
2019-01-24T11:09:24.079Z,47.10
2019-01-24T11:11:57.539Z,41.73
2019-01-24T11:14:30.959Z,46.13
2019-01-24T11:17:04.495Z,39.70
2019-01-24T11:19:37.910Z,43.63
2019-01-24T11:22:11.358Z,42.20
2019-01-24T11:24:44.840Z,40.30
2019-01-24T11:27:18.378Z,43.13
2019-01-24T11:29:51.800Z,46.57
2019-01-24T11:32:25.252Z,43.10
2019-01-24T11:34:58.669Z,41.87
2019-01-24T11:37:32.131Z,41.67
2019-01-24T11:40:08.739Z,41.33
2019-01-24T11:42:42.185Z,41.30
2019-01-24T11:45:17.981Z,44.67
2019-01-24T11:47:51.542Z,39.30
2019-01-24T11:50:25.008Z,37.40
2019-01-24T11:52:58.526Z,34.47
2019-01-24T11:55:32.032Z,36.83
2019-01-24T11:58:05.738Z,37.73
2019-01-24T12:00:41.175Z,34.63
2019-01-24T12:03:14.706Z,39.53
2019-01-24T12:05:48.194Z,36.17
2019-01-24T12:08:21.738Z,37.63
2019-01-24T12:10:55.176Z,36.27
2019-01-24T12:13:28.900Z,37.97
2019-01-24T12:16:02.391Z,38.03
2019-01-24T12:18:35.828Z,38.33
2019-01-24T12:21:09.254Z,39.57
2019-01-24T12:23:42.785Z,37.03
2019-01-24T12:26:16.124Z,36.40
2019-01-24T12:28:49.616Z,34.70
2019-01-24T12:31:23.129Z,38.80
2019-01-24T12:33:56.677Z,38.53
2019-01-24T12:36:30.084Z,39.37
2019-01-24T12:39:05.019Z,37.57
2019-01-24T12:41:38.442Z,33.20
2019-01-24T12:44:11.911Z,37.07
2019-01-24T12:46:45.328Z,36.90
2019-01-24T12:49:18.785Z,36.70
2019-01-24T12:51:52.271Z,36.43
2019-01-24T12:54:25.853Z,36.53
2019-01-24T12:56:59.653Z,36.30
2019-01-24T12:59:33.133Z,36.97
2019-01-24T13:02:06.625Z,36.90
2019-01-24T13:04:40.073Z,32.97
2019-01-24T13:07:18.414Z,34.40
2019-01-24T13:09:48.857Z,35.27
2019-01-24T13:12:22.211Z,36.60
2019-01-24T13:14:55.778Z,36.07
2019-01-24T13:17:29.188Z,33.70
2019-01-24T13:20:02.750Z,33.27
2019-01-24T13:22:36.174Z,33.97
2019-01-24T13:25:12.772Z,84.43
2019-01-24T13:27:46.267Z,39.73
2019-01-24T13:30:24.665Z,34.90
2019-01-24T13:32:58.155Z,40.10
2019-01-24T13:35:31.754Z,46.80
2019-01-24T13:38:05.445Z,62.10
2019-01-24T13:40:39.080Z,42.23
2019-01-24T13:43:12.506Z,33.87
2019-01-24T13:45:46.032Z,32.73
2019-01-24T13:48:19.449Z,32.60
2019-01-24T13:50:52.901Z,32.87
2019-01-24T13:53:26.402Z,59.60
2019-01-24T13:55:59.868Z,42.03
2019-01-24T13:58:33.351Z,31.67
2019-01-24T14:01:06.896Z,32.80
2019-01-24T14:03:42.167Z,36.30
2019-01-24T14:06:16.192Z,39.23
2019-01-24T14:08:49.604Z,33.93
2019-01-24T14:11:23.077Z,31.27
2019-01-24T14:13:56.433Z,32.67
2019-01-24T14:16:29.904Z,32.30
2019-01-24T14:19:03.466Z,34.90
2019-01-24T14:21:36.940Z,31.00
2019-01-24T14:24:10.367Z,28.90
2019-01-24T14:26:44.200Z,29.77
2019-01-24T14:29:17.690Z,28.30
2019-01-24T14:31:51.180Z,31.93
2019-01-24T14:34:24.610Z,30.43
2019-01-24T14:36:58.148Z,30.83
2019-01-24T14:39:31.572Z,28.73
2019-01-24T14:42:05.106Z,28.40
2019-01-24T14:44:38.532Z,31.43
2019-01-24T14:47:11.993Z,29.67
2019-01-24T14:49:45.411Z,30.30
2019-01-24T14:52:18.884Z,31.80
2019-01-24T14:54:52.294Z,31.67
2019-01-24T14:57:25.753Z,31.60
2019-01-24T14:59:59.314Z,32.60
2019-01-24T15:02:32.775Z,31.00
2019-01-24T15:05:09.535Z,29.00
2019-01-24T15:07:47.093Z,24.93
2019-01-24T15:10:18.515Z,29.23
2019-01-24T15:12:52.061Z,28.83
2019-01-24T15:15:25.749Z,26.90
2019-01-24T15:17:59.220Z,29.90
2019-01-24T15:20:32.566Z,27.57
2019-01-24T15:23:06.161Z,30.23
2019-01-24T15:25:39.581Z,30.97
2019-01-24T15:28:13.033Z,32.47
2019-01-24T15:30:46.458Z,32.43
2019-01-24T15:33:19.931Z,34.77
2019-01-24T15:35:53.341Z,32.33
2019-01-24T15:38:27.893Z,34.43
2019-01-24T15:41:01.341Z,34.97
2019-01-24T15:43:34.869Z,31.07
2019-01-24T15:46:08.353Z,35.63
2019-01-24T15:48:42.605Z,35.67
2019-01-24T15:51:17.518Z,34.33
2019-01-24T15:53:50.973Z,33.57
2019-01-24T15:56:24.397Z,31.20
2019-01-24T15:58:58.195Z,34.50
2019-01-24T16:01:31.698Z,29.03
2019-01-24T16:04:05.787Z,31.43
2019-01-24T16:06:39.209Z,32.90
2019-01-24T16:09:12.734Z,30.87
2019-01-24T16:11:46.163Z,30.57
2019-01-24T16:14:19.766Z,33.00
2019-01-24T16:16:53.182Z,31.03
2019-01-24T16:19:26.735Z,33.00
2019-01-24T16:22:00.180Z,33.70
2019-01-24T16:24:33.726Z,32.87
2019-01-24T16:27:07.154Z,33.33
2019-01-24T16:29:40.602Z,34.63
2019-01-24T16:32:14.045Z,32.10
2019-01-24T16:34:47.492Z,34.13
2019-01-24T16:37:20.912Z,33.83
2019-01-24T16:39:54.763Z,31.47
2019-01-24T16:42:28.203Z,36.00
2019-01-24T16:45:01.602Z,35.37
2019-01-24T16:47:35.022Z,33.20
2019-01-24T16:50:11.393Z,30.73
2019-01-24T16:52:44.912Z,34.53
2019-01-24T16:55:19.103Z,30.93
2019-01-24T16:57:53.287Z,33.90
2019-01-24T17:00:38.759Z,32.60
2019-01-24T17:03:12.244Z,33.83
2019-01-24T17:05:45.743Z,32.13
2019-01-24T17:08:19.204Z,32.23
2019-01-24T17:10:52.731Z,30.17
2019-01-24T17:13:26.161Z,32.97
2019-01-24T17:15:59.782Z,33.70
2019-01-24T17:18:34.556Z,34.90
2019-01-24T17:21:08.154Z,34.30
2019-01-24T17:23:41.645Z,32.53
2019-01-24T17:26:15.123Z,33.70
2019-01-24T17:28:49.964Z,33.03
2019-01-24T17:31:23.581Z,33.80
2019-01-24T17:33:57.070Z,34.07
2019-01-24T17:36:30.633Z,32.67
2019-01-24T17:39:05.699Z,33.80
2019-01-24T17:41:39.177Z,34.70
2019-01-24T17:44:12.734Z,34.60
2019-01-24T17:46:46.292Z,32.73
2019-01-24T17:49:19.899Z,37.07
2019-01-24T17:51:53.419Z,35.47
2019-01-24T17:54:26.902Z,31.07
2019-01-24T17:57:00.430Z,32.90
2019-01-24T17:59:33.848Z,37.63
2019-01-24T18:02:07.377Z,35.33
2019-01-24T18:04:40.871Z,34.37
2019-01-24T18:07:14.426Z,38.57
2019-01-24T18:09:48.326Z,36.73
2019-01-24T18:12:23.553Z,38.17
2019-01-24T18:14:57.065Z,36.67
2019-01-24T18:17:30.516Z,36.27
2019-01-24T18:20:06.989Z,32.50
2019-01-24T18:22:40.442Z,32.57
2019-01-24T18:25:13.924Z,34.90
2019-01-24T18:27:47.512Z,36.90
2019-01-24T18:30:23.328Z,35.90
2019-01-24T18:32:57.117Z,37.07
2019-01-24T18:35:30.533Z,38.37
2019-01-24T18:38:04.531Z,32.43
2019-01-24T18:40:38.280Z,32.57
2019-01-24T18:43:15.262Z,36.00
2019-01-24T18:45:51.357Z,33.67
2019-01-24T18:48:25.243Z,36.50
2019-01-24T18:50:58.831Z,34.83
2019-01-24T18:53:32.537Z,34.40
2019-01-24T18:56:06.018Z,39.20
2019-01-24T18:58:39.605Z,34.40
2019-01-24T19:01:13.103Z,38.67
2019-01-24T19:03:46.594Z,36.30
2019-01-24T19:06:20.093Z,39.07
2019-01-24T19:08:53.677Z,36.63
2019-01-24T19:11:27.127Z,36.47
2019-01-24T19:14:00.594Z,37.07
2019-01-24T19:16:34.081Z,38.33
2019-01-24T19:19:07.621Z,36.80
2019-01-24T19:21:41.120Z,37.17
2019-01-24T19:24:14.664Z,38.10
2019-01-24T19:26:48.157Z,38.17
2019-01-24T19:29:22.121Z,36.60
2019-01-24T19:31:55.560Z,39.60
2019-01-24T19:34:29.118Z,37.67
2019-01-24T19:37:02.604Z,39.17
2019-01-24T19:39:36.448Z,43.17
2019-01-24T19:42:09.939Z,40.63
2019-01-24T19:44:43.588Z,39.17
2019-01-24T19:47:16.993Z,36.03
2019-01-24T19:49:50.449Z,38.70
2019-01-24T19:52:23.954Z,44.30
2019-01-24T19:54:57.510Z,38.73
2019-01-24T19:57:30.930Z,43.00
2019-01-24T20:00:07.498Z,48.17
2019-01-24T20:02:40.915Z,38.93
2019-01-24T20:05:16.627Z,37.30
2019-01-24T20:07:50.285Z,44.00
2019-01-24T20:10:25.814Z,42.80
2019-01-24T20:12:59.376Z,41.37
2019-01-24T20:15:33.958Z,41.77
2019-01-24T20:18:07.844Z,45.33
2019-01-24T20:20:41.371Z,40.23
2019-01-24T20:23:14.862Z,38.13
2019-01-24T20:25:48.401Z,38.40
2019-01-24T20:28:21.763Z,36.97
2019-01-24T20:30:55.326Z,41.00
2019-01-24T20:33:28.815Z,41.00
2019-01-24T20:36:02.308Z,39.67
2019-01-24T20:38:35.737Z,41.13
2019-01-24T20:41:09.335Z,37.13
2019-01-24T20:43:42.845Z,40.80
2019-01-24T20:46:16.349Z,43.87
2019-01-24T20:48:49.789Z,41.77
2019-01-24T20:51:23.256Z,41.87
2019-01-24T20:53:56.668Z,44.27
2019-01-24T20:56:30.120Z,41.87
2019-01-24T20:59:03.765Z,45.93
2019-01-24T21:01:37.297Z,40.60
2019-01-24T21:04:10.719Z,41.97
2019-01-24T21:06:44.092Z,38.97
2019-01-24T21:09:17.582Z,39.13
2019-01-24T21:11:51.438Z,37.57
2019-01-24T21:14:24.925Z,38.93
2019-01-24T21:16:58.491Z,41.27
2019-01-24T21:19:31.827Z,41.73
2019-01-24T21:22:07.216Z,43.53
2019-01-24T21:24:40.591Z,41.63
2019-01-24T21:27:14.047Z,41.53
2019-01-24T21:29:47.466Z,41.37
2019-01-24T21:32:21.038Z,37.43
2019-01-24T21:34:54.523Z,38.93
2019-01-24T21:37:27.911Z,40.57
2019-01-24T21:40:01.346Z,39.73
2019-01-24T21:42:34.818Z,42.00
2019-01-24T21:45:14.232Z,41.53
2019-01-24T21:47:47.760Z,42.67
2019-01-24T21:50:23.350Z,43.63
2019-01-24T21:52:56.798Z,44.33
2019-01-24T21:55:30.593Z,45.57
2019-01-24T21:58:04.719Z,44.23
2019-01-24T22:00:38.312Z,45.60
2019-01-24T22:03:11.905Z,44.13
2019-01-24T22:05:45.281Z,46.47
2019-01-24T22:08:18.733Z,42.53
2019-01-24T22:10:52.241Z,45.07
2019-01-24T22:13:25.854Z,44.17
2019-01-24T22:15:59.272Z,44.67
2019-01-24T22:18:32.747Z,43.70
2019-01-24T22:21:06.540Z,44.23
2019-01-24T22:23:39.996Z,44.97
2019-01-24T22:26:13.444Z,43.13
2019-01-24T22:28:47.005Z,45.30
2019-01-24T22:31:20.486Z,47.53
2019-01-24T22:33:54.351Z,41.73
2019-01-24T22:36:27.768Z,44.77
2019-01-24T22:39:01.294Z,40.23
2019-01-24T22:41:34.647Z,42.43
2019-01-24T22:44:08.038Z,43.80
2019-01-24T22:46:41.453Z,43.33
2019-01-24T22:49:15.243Z,42.33
2019-01-24T22:51:48.666Z,42.97
2019-01-24T22:54:22.166Z,45.57
2019-01-24T22:56:55.578Z,41.77
2019-01-24T22:59:29.111Z,43.77
2019-01-24T23:02:02.594Z,46.10
2019-01-24T23:04:36.521Z,46.17
2019-01-24T23:07:09.961Z,40.30
2019-01-24T23:09:44.229Z,39.17
2019-01-24T23:12:17.816Z,38.90
2019-01-24T23:14:51.282Z,42.70
2019-01-24T23:17:26.307Z,42.83
2019-01-24T23:19:59.766Z,43.87
2019-01-24T23:22:33.266Z,42.30
2019-01-24T23:25:07.076Z,43.47
2019-01-24T23:27:40.621Z,44.27
2019-01-24T23:30:14.476Z,41.13
2019-01-24T23:32:47.899Z,42.67
2019-01-24T23:35:21.355Z,43.50
2019-01-24T23:37:54.953Z,47.23
2019-01-24T23:40:28.472Z,44.30
2019-01-24T23:43:01.950Z,48.67
2019-01-24T23:45:35.664Z,43.10
2019-01-24T23:48:09.160Z,43.00
2019-01-24T23:50:42.899Z,40.77
2019-01-24T23:53:16.488Z,43.63
2019-01-24T23:55:50.031Z,41.50
2019-01-24T23:58:23.545Z,40.83
